createdAt,value
2022-11-16T00:01:30.292Z,12.00
2022-11-16T00:04:00.957Z,12.00
2022-11-16T00:06:30.628Z,11.90
2022-11-16T00:09:18.480Z,11.80
2022-11-16T00:11:49.665Z,11.80
2022-11-16T00:14:19.622Z,11.80
2022-11-16T00:16:47.952Z,11.80
2022-11-16T00:19:16.389Z,11.80
2022-11-16T00:21:45.152Z,11.80
2022-11-16T00:24:14.863Z,11.70
2022-11-16T00:26:44.240Z,11.70
2022-11-16T00:29:16.060Z,11.80
2022-11-16T00:31:46.851Z,11.80
2022-11-16T00:34:15.336Z,11.70
2022-11-16T00:36:43.884Z,11.70
2022-11-16T00:39:13.114Z,11.70
2022-11-16T00:41:41.685Z,11.60
2022-11-16T00:44:10.143Z,11.60
2022-11-16T00:46:38.429Z,11.60
2022-11-16T00:49:08.604Z,11.60
2022-11-16T00:51:38.270Z,11.60
2022-11-16T00:54:08.781Z,11.60
2022-11-16T00:56:38.749Z,11.60
2022-11-16T00:59:07.348Z,11.60
2022-11-16T01:01:35.729Z,11.60
2022-11-16T01:04:04.072Z,11.60
2022-11-16T01:06:33.982Z,11.60
2022-11-16T01:09:02.227Z,11.60
2022-11-16T01:11:48.441Z,11.50
2022-11-16T01:14:16.888Z,11.40
2022-11-16T01:16:45.241Z,11.40
2022-11-16T01:19:13.687Z,11.40
2022-11-16T01:21:43.680Z,11.30
2022-11-16T01:24:12.000Z,11.30
2022-11-16T01:26:40.584Z,11.30
2022-11-16T01:29:09.077Z,11.30
2022-11-16T01:31:38.849Z,11.30
2022-11-16T01:34:08.292Z,11.30
2022-11-16T01:36:38.111Z,11.30
2022-11-16T01:39:08.759Z,11.30
2022-11-16T01:41:39.036Z,11.30
2022-11-16T01:44:28.671Z,11.30
2022-11-16T01:46:56.970Z,11.20
2022-11-16T01:49:27.645Z,11.20
2022-11-16T01:51:59.813Z,11.20
2022-11-16T01:54:30.505Z,11.10
2022-11-16T01:57:01.634Z,11.10
2022-11-16T01:59:32.786Z,11.10
2022-11-16T02:02:02.254Z,11.10
2022-11-16T02:04:31.598Z,11.10
2022-11-16T02:07:09.038Z,11.10
2022-11-16T02:10:01.609Z,11.10
2022-11-16T02:13:07.627Z,11.10
2022-11-16T02:15:42.120Z,11.10
2022-11-16T02:18:20.477Z,11.10
2022-11-16T02:21:10.886Z,11.10
2022-11-16T02:24:13.624Z,11.10
2022-11-16T02:27:12.373Z,11.00
2022-11-16T02:29:45.305Z,11.00
2022-11-16T02:32:16.367Z,11.00
2022-11-16T02:34:50.061Z,11.00
2022-11-16T02:37:21.951Z,11.10
2022-11-16T02:39:55.652Z,11.00
2022-11-16T02:42:27.730Z,11.00
2022-11-16T02:45:01.517Z,11.10
2022-11-16T02:47:33.430Z,11.10
2022-11-16T02:50:06.407Z,11.10
2022-11-16T02:52:34.609Z,11.10
2022-11-16T02:55:03.134Z,11.10
2022-11-16T02:57:43.706Z,11.00
2022-11-16T03:00:20.293Z,11.10
2022-11-16T03:02:56.662Z,11.10
2022-11-16T03:05:33.300Z,10.90
2022-11-16T03:08:13.257Z,11.00
2022-11-16T03:11:00.572Z,11.00
2022-11-16T03:13:32.407Z,10.90
2022-11-16T03:16:04.008Z,10.90
2022-11-16T03:18:32.724Z,10.90
2022-11-16T03:21:18.084Z,10.90
2022-11-16T03:23:47.680Z,10.90
2022-11-16T03:26:21.748Z,10.90
2022-11-16T03:28:56.468Z,10.90
2022-11-16T03:31:30.498Z,10.90
2022-11-16T03:34:05.004Z,10.90
2022-11-16T03:36:35.545Z,10.90
2022-11-16T03:39:10.190Z,10.80
2022-11-16T03:41:41.562Z,10.90
2022-11-16T03:44:11.657Z,10.90
2022-11-16T03:46:42.088Z,10.90
2022-11-16T03:49:10.331Z,10.90
2022-11-16T03:51:38.997Z,10.90
2022-11-16T03:54:07.603Z,10.90
2022-11-16T03:56:35.831Z,10.90
2022-11-16T03:59:04.496Z,10.90
2022-11-16T04:01:32.746Z,10.90
2022-11-16T04:04:02.702Z,10.90
2022-11-16T04:06:48.145Z,10.90
2022-11-16T04:09:33.710Z,10.90
2022-11-16T04:12:19.726Z,10.90
2022-11-16T04:15:05.403Z,10.90
2022-11-16T04:17:59.285Z,10.90
2022-11-16T04:20:46.472Z,10.90
2022-11-16T04:23:35.131Z,10.90
2022-11-16T04:26:05.404Z,10.90
2022-11-16T04:28:36.059Z,11.00
2022-11-16T04:31:24.979Z,10.90
2022-11-16T04:34:11.593Z,10.90
2022-11-16T04:36:58.935Z,10.90
2022-11-16T04:39:27.262Z,10.80
2022-11-16T04:42:12.989Z,10.90
2022-11-16T04:44:59.543Z,10.80
2022-11-16T04:47:27.900Z,10.90
2022-11-16T04:50:13.931Z,10.80
2022-11-16T04:52:43.484Z,10.80
2022-11-16T04:55:12.345Z,10.80
2022-11-16T04:57:40.620Z,10.80
2022-11-16T05:00:10.172Z,10.80
2022-11-16T05:02:38.466Z,10.80
2022-11-16T05:05:07.531Z,10.80
2022-11-16T05:07:36.584Z,10.80
2022-11-16T05:10:07.949Z,10.70
2022-11-16T05:12:36.594Z,10.80
2022-11-16T05:15:05.398Z,10.80
2022-11-16T05:17:34.561Z,10.80
2022-11-16T05:20:20.459Z,10.80
2022-11-16T05:22:57.120Z,10.80
2022-11-16T05:25:31.258Z,10.70
2022-11-16T05:28:03.072Z,10.80
2022-11-16T05:30:31.673Z,10.80
2022-11-16T05:33:00.413Z,10.70
2022-11-16T05:35:29.027Z,10.70
2022-11-16T05:37:59.925Z,10.70
2022-11-16T05:40:32.981Z,10.80
2022-11-16T05:43:01.500Z,10.80
2022-11-16T05:45:30.019Z,10.70
2022-11-16T05:47:58.320Z,10.80
2022-11-16T05:50:27.120Z,10.90
2022-11-16T05:52:55.326Z,10.90
2022-11-16T05:55:23.586Z,10.90
2022-11-16T05:57:53.469Z,11.00
2022-11-16T06:00:21.965Z,10.90
2022-11-16T06:02:50.616Z,10.80
2022-11-16T06:05:18.822Z,10.80
2022-11-16T06:07:47.145Z,10.80
2022-11-16T06:10:16.053Z,10.80
2022-11-16T06:12:44.400Z,10.90
2022-11-16T06:15:14.405Z,10.80
2022-11-16T06:17:42.741Z,10.80
2022-11-16T06:20:11.841Z,10.70
2022-11-16T06:22:40.459Z,10.70
2022-11-16T06:25:10.927Z,10.70
2022-11-16T06:27:40.625Z,10.70
2022-11-16T06:30:09.672Z,10.70
2022-11-16T06:32:40.233Z,10.70
2022-11-16T06:35:09.335Z,10.70
2022-11-16T06:37:37.727Z,10.70
2022-11-16T06:40:07.332Z,10.80
2022-11-16T06:42:35.550Z,10.80
2022-11-16T06:45:03.878Z,10.80
2022-11-16T06:47:32.298Z,10.80
2022-11-16T06:50:02.213Z,10.80
2022-11-16T06:52:30.623Z,10.80
2022-11-16T06:54:59.038Z,10.80
2022-11-16T06:57:27.375Z,10.80
2022-11-16T06:59:55.710Z,10.80
2022-11-16T07:02:24.337Z,10.80
2022-11-16T07:04:53.798Z,10.80
2022-11-16T07:07:23.747Z,10.80
2022-11-16T07:09:55.473Z,10.80
2022-11-16T07:12:23.615Z,10.70
2022-11-16T07:14:51.778Z,10.60
2022-11-16T07:17:20.175Z,10.60
2022-11-16T07:19:49.370Z,10.60
2022-11-16T07:22:17.716Z,10.60
2022-11-16T07:24:48.031Z,10.60
2022-11-16T07:27:16.818Z,10.60
2022-11-16T07:29:45.014Z,10.60
2022-11-16T07:32:13.571Z,10.60
2022-11-16T07:34:43.788Z,10.60
2022-11-16T07:37:12.071Z,10.60
2022-11-16T07:39:40.285Z,10.60
2022-11-16T07:42:11.843Z,10.70
2022-11-16T07:44:41.811Z,10.70
2022-11-16T07:47:09.970Z,10.70
2022-11-16T07:49:38.472Z,10.70
2022-11-16T07:52:09.035Z,10.70
2022-11-16T07:54:37.694Z,10.70
2022-11-16T07:57:06.203Z,10.70
2022-11-16T07:59:35.979Z,10.80
2022-11-16T08:02:04.419Z,10.70
2022-11-16T08:04:32.729Z,10.80
2022-11-16T08:07:01.285Z,10.90
2022-11-16T08:09:29.343Z,11.00
2022-11-16T08:11:57.677Z,11.20
2022-11-16T08:14:28.187Z,11.30
2022-11-16T08:17:00.608Z,11.30
2022-11-16T08:19:29.396Z,11.40
2022-11-16T08:21:58.462Z,11.50
2022-11-16T08:24:30.288Z,11.80
2022-11-16T08:27:00.896Z,11.80
2022-11-16T08:29:29.685Z,11.90
2022-11-16T08:32:00.030Z,11.80
2022-11-16T08:34:28.488Z,11.80
2022-11-16T08:36:59.159Z,11.90
2022-11-16T08:39:27.406Z,12.00
2022-11-16T08:41:59.740Z,12.10
2022-11-16T08:44:28.160Z,12.00
2022-11-16T08:46:56.448Z,12.00
2022-11-16T08:49:25.945Z,11.90
2022-11-16T08:51:54.277Z,11.90
2022-11-16T08:54:22.873Z,11.90
2022-11-16T08:56:51.324Z,11.80
2022-11-16T08:59:19.713Z,11.80
2022-11-16T09:01:50.058Z,11.80
2022-11-16T09:04:18.756Z,11.90
2022-11-16T09:06:48.919Z,11.90
2022-11-16T09:09:17.263Z,12.00
2022-11-16T09:11:45.793Z,12.10
2022-11-16T09:14:14.526Z,12.10
2022-11-16T09:16:45.239Z,12.20
2022-11-16T09:19:13.433Z,12.10
2022-11-16T09:21:41.700Z,12.00
2022-11-16T09:24:13.955Z,12.00
2022-11-16T09:26:43.178Z,12.10
2022-11-16T09:29:14.594Z,12.10
2022-11-16T09:31:43.536Z,12.10
2022-11-16T09:34:11.810Z,12.10
2022-11-16T09:36:40.719Z,12.20
2022-11-16T09:42:18.791Z,12.30
2022-11-16T09:45:04.920Z,12.30
2022-11-16T09:47:46.114Z,12.30
2022-11-16T09:50:36.609Z,12.40
2022-11-16T09:53:24.110Z,12.40
2022-11-16T09:55:55.270Z,12.50
2022-11-16T09:58:40.121Z,12.60
2022-11-16T10:01:25.382Z,12.70
2022-11-16T10:04:01.053Z,12.70
2022-11-16T10:06:38.565Z,12.80
2022-11-16T10:09:07.159Z,12.80
2022-11-16T10:11:57.513Z,12.70
2022-11-16T10:14:55.026Z,12.70
2022-11-16T10:17:33.048Z,12.70
2022-11-16T10:20:19.403Z,12.90
2022-11-16T10:22:56.222Z,13.00
2022-11-16T10:25:28.795Z,13.00
2022-11-16T10:28:16.694Z,13.00
2022-11-16T10:30:56.894Z,13.00
2022-11-16T10:33:35.588Z,13.00
2022-11-16T10:36:08.025Z,12.90
2022-11-16T10:38:36.663Z,12.80
2022-11-16T10:41:15.109Z,12.80
2022-11-16T10:43:44.736Z,12.60
2022-11-16T10:46:21.815Z,12.40
2022-11-16T10:49:01.770Z,12.40
2022-11-16T10:51:30.301Z,12.50
2022-11-16T10:54:00.764Z,12.50
2022-11-16T10:56:32.817Z,12.50
2022-11-16T10:59:03.309Z,12.50
2022-11-16T11:01:40.641Z,12.40
2022-11-16T11:04:20.928Z,12.30
2022-11-16T11:06:51.487Z,12.30
2022-11-16T11:09:29.090Z,12.20
2022-11-16T11:12:31.404Z,12.10
2022-11-16T11:15:06.378Z,12.10
2022-11-16T11:17:37.175Z,12.10
2022-11-16T11:20:07.504Z,12.00
2022-11-16T11:22:45.377Z,12.20
2022-11-16T11:25:23.229Z,12.20
2022-11-16T11:27:52.182Z,12.20
2022-11-16T11:30:23.291Z,12.30
2022-11-16T11:32:53.550Z,12.40
2022-11-16T11:35:27.111Z,12.50
2022-11-16T11:37:57.992Z,12.50
2022-11-16T11:40:28.633Z,12.60
2022-11-16T11:43:00.757Z,12.60
2022-11-16T11:45:43.573Z,12.50
2022-11-16T11:48:35.900Z,12.40
2022-11-16T11:51:12.325Z,12.40
2022-11-16T11:53:53.036Z,12.40
2022-11-16T11:56:21.650Z,12.30
2022-11-16T11:58:51.304Z,12.20
2022-11-16T12:01:41.824Z,12.20
2022-11-16T12:04:55.837Z,12.20
2022-11-16T12:07:40.571Z,12.20
2022-11-16T12:10:18.536Z,12.20
2022-11-16T12:13:00.539Z,12.20
2022-11-16T12:15:56.938Z,12.20
2022-11-16T12:18:43.544Z,12.30
2022-11-16T12:21:22.447Z,12.30
2022-11-16T12:24:10.139Z,12.30
2022-11-16T12:26:53.214Z,12.30
2022-11-16T12:29:29.627Z,12.30
2022-11-16T12:32:22.005Z,12.40
2022-11-16T12:35:09.644Z,12.60
2022-11-16T12:37:49.636Z,12.70
2022-11-16T12:40:43.792Z,12.90
2022-11-16T12:43:18.769Z,12.80
2022-11-16T12:45:58.993Z,12.70
2022-11-16T12:49:01.109Z,12.60
2022-11-16T12:51:47.873Z,12.60
2022-11-16T12:54:38.009Z,12.50
2022-11-16T12:57:13.641Z,12.40
2022-11-16T13:00:04.918Z,12.50
2022-11-16T13:02:47.949Z,12.50
2022-11-16T13:05:21.544Z,12.60
2022-11-16T13:07:57.018Z,12.70
2022-11-16T13:10:32.039Z,12.70
2022-11-16T13:13:34.931Z,12.70
2022-11-16T13:16:01.057Z,12.80
2022-11-16T13:18:31.777Z,12.80
2022-11-16T13:21:08.420Z,12.80
2022-11-16T13:23:51.107Z,12.80
2022-11-16T13:26:32.836Z,12.70
2022-11-16T13:29:10.329Z,12.70
2022-11-16T13:31:45.171Z,12.70
2022-11-16T13:34:19.858Z,12.70
2022-11-16T13:36:52.114Z,12.70
2022-11-16T13:39:23.259Z,12.80
2022-11-16T13:42:08.252Z,12.80
2022-11-16T13:44:38.587Z,12.90
2022-11-16T13:47:21.268Z,12.90
2022-11-16T13:49:54.163Z,13.00
2022-11-16T13:52:24.974Z,13.10
2022-11-16T13:55:16.732Z,13.10
2022-11-16T13:57:52.854Z,13.10
2022-11-16T14:00:28.473Z,13.00
2022-11-16T14:03:32.169Z,13.00
2022-11-16T14:06:00.600Z,12.90
2022-11-16T14:08:52.181Z,12.80
2022-11-16T14:11:37.585Z,12.80
2022-11-16T14:14:11.067Z,12.70
2022-11-16T14:16:47.068Z,12.70
2022-11-16T14:19:55.003Z,12.70
2022-11-16T14:22:41.669Z,12.70
2022-11-16T14:25:22.961Z,12.70
2022-11-16T14:27:58.710Z,12.70
2022-11-16T14:30:31.812Z,12.70
2022-11-16T14:33:00.615Z,12.80
2022-11-16T14:35:33.834Z,12.80
2022-11-16T14:38:06.000Z,12.70
2022-11-16T14:40:44.734Z,12.70
2022-11-16T14:43:19.175Z,12.70
2022-11-16T14:45:54.945Z,12.70
2022-11-16T14:48:25.973Z,12.70
2022-11-16T14:51:06.205Z,12.70
2022-11-16T14:54:11.078Z,12.70
2022-11-16T14:56:39.574Z,12.70
2022-11-16T14:59:07.832Z,12.60
2022-11-16T15:01:40.996Z,12.70
2022-11-16T15:04:12.327Z,12.60
2022-11-16T15:06:44.790Z,12.60
2022-11-16T15:09:21.541Z,12.60
2022-11-16T15:12:09.035Z,12.60
2022-11-16T15:14:42.847Z,12.50
2022-11-16T15:17:19.325Z,12.50
2022-11-16T15:19:56.738Z,12.50
2022-11-16T15:22:27.118Z,12.50
2022-11-16T15:24:57.532Z,12.40
2022-11-16T15:27:39.589Z,12.40
2022-11-16T15:30:16.573Z,12.40
2022-11-16T15:32:48.816Z,12.40
2022-11-16T15:35:21.313Z,12.30
2022-11-16T15:37:49.860Z,12.30
2022-11-16T15:40:18.814Z,12.30
2022-11-16T15:42:47.455Z,12.30
2022-11-16T15:45:22.571Z,12.20
2022-11-16T15:47:56.506Z,12.20
2022-11-16T15:50:25.348Z,12.20
2022-11-16T15:52:55.987Z,12.10
2022-11-16T15:55:28.147Z,12.10
2022-11-16T15:58:13.940Z,12.10
2022-11-16T16:00:43.471Z,12.10
2022-11-16T16:03:23.574Z,12.10
2022-11-16T16:05:53.474Z,12.10
2022-11-16T16:08:31.810Z,12.10
2022-11-16T16:11:08.285Z,12.10
2022-11-16T16:13:39.264Z,12.00
2022-11-16T16:16:32.658Z,12.00
2022-11-16T16:19:09.697Z,12.00
2022-11-16T16:21:44.382Z,12.00
2022-11-16T16:24:41.016Z,12.00
2022-11-16T16:27:14.161Z,12.00
2022-11-16T16:29:42.998Z,12.00
2022-11-16T16:32:15.124Z,12.10
2022-11-16T16:34:44.999Z,12.10
2022-11-16T16:37:14.129Z,12.10
2022-11-16T16:39:42.391Z,12.10
2022-11-16T16:42:13.156Z,12.20
2022-11-16T16:44:46.510Z,12.20
2022-11-16T16:47:15.367Z,12.10
2022-11-16T16:49:47.073Z,12.10
2022-11-16T16:52:15.506Z,12.00
2022-11-16T16:54:46.075Z,12.00
2022-11-16T16:57:17.820Z,12.00
2022-11-16T16:59:48.350Z,11.90
2022-11-16T17:02:25.131Z,11.80
2022-11-16T17:05:03.014Z,11.80
2022-11-16T17:07:31.647Z,11.80
2022-11-16T17:10:00.767Z,11.80
2022-11-16T17:12:32.393Z,11.70
2022-11-16T17:15:04.422Z,11.70
2022-11-16T17:17:40.235Z,11.70
2022-11-16T17:20:13.429Z,11.60
2022-11-16T17:22:42.012Z,11.70
2022-11-16T17:25:11.544Z,11.60
2022-11-16T17:27:41.707Z,11.70
2022-11-16T17:30:12.326Z,11.60
2022-11-16T17:32:44.576Z,11.60
2022-11-16T17:35:14.705Z,11.60
2022-11-16T17:37:43.431Z,11.60
2022-11-16T17:40:12.140Z,11.50
2022-11-16T17:42:40.414Z,11.50
2022-11-16T17:45:09.395Z,11.60
2022-11-16T17:47:42.264Z,11.50
2022-11-16T17:50:11.424Z,11.50
2022-11-16T17:52:44.142Z,11.50
2022-11-16T17:55:12.343Z,11.50
2022-11-16T17:57:40.698Z,11.50
2022-11-16T18:00:10.700Z,11.50
2022-11-16T18:02:39.744Z,11.50
2022-11-16T18:05:08.503Z,11.50
2022-11-16T18:07:38.678Z,11.50
2022-11-16T18:10:16.266Z,11.40
2022-11-16T18:12:47.596Z,11.30
2022-11-16T18:15:28.411Z,11.20
2022-11-16T18:17:57.211Z,11.20
2022-11-16T18:20:27.643Z,11.10
2022-11-16T18:22:56.054Z,11.10
2022-11-16T18:25:26.169Z,11.00
2022-11-16T18:27:55.141Z,11.00
2022-11-16T18:30:24.769Z,11.00
2022-11-16T18:32:52.919Z,11.00
2022-11-16T18:35:20.900Z,11.00
2022-11-16T18:37:49.224Z,11.00
2022-11-16T18:40:18.237Z,11.00
2022-11-16T18:42:54.415Z,11.00
2022-11-16T18:45:22.980Z,11.00
2022-11-16T18:47:52.240Z,11.00
2022-11-16T18:50:26.522Z,11.00
2022-11-16T18:52:55.191Z,11.00
2022-11-16T18:55:23.747Z,11.00
2022-11-16T18:57:53.636Z,11.10
2022-11-16T19:00:23.925Z,11.10
2022-11-16T19:02:52.130Z,11.10
2022-11-16T19:05:23.320Z,11.10
2022-11-16T19:07:52.384Z,11.10
2022-11-16T19:10:25.335Z,11.10
2022-11-16T19:12:56.983Z,11.10
2022-11-16T19:15:26.434Z,11.10
2022-11-16T19:18:19.814Z,11.10
2022-11-16T19:20:44.842Z,11.10
2022-11-16T19:23:13.539Z,11.10
2022-11-16T19:25:41.617Z,11.10
2022-11-16T19:28:11.513Z,11.10
2022-11-16T19:30:39.824Z,11.10
2022-11-16T19:33:08.167Z,11.10
2022-11-16T19:35:38.347Z,11.10
2022-11-16T19:38:06.305Z,11.10
2022-11-16T19:40:38.054Z,11.10
2022-11-16T19:43:06.699Z,11.10
2022-11-16T19:45:38.468Z,11.10
2022-11-16T19:48:11.615Z,11.20
2022-11-16T19:50:40.448Z,11.20
2022-11-16T19:53:08.476Z,11.20
2022-11-16T19:55:36.873Z,11.20
2022-11-16T19:58:06.724Z,11.10
2022-11-16T20:00:36.280Z,11.10
2022-11-16T20:03:10.000Z,11.10
2022-11-16T20:05:38.627Z,11.10
2022-11-16T20:08:07.319Z,11.10
2022-11-16T20:10:38.321Z,11.10
2022-11-16T20:13:09.190Z,11.10
2022-11-16T20:15:41.301Z,11.10
2022-11-16T20:18:11.831Z,11.10
2022-11-16T20:20:40.830Z,11.20
2022-11-16T20:23:10.037Z,11.20
2022-11-16T20:25:42.313Z,11.10
2022-11-16T20:28:10.555Z,11.10
2022-11-16T20:30:38.706Z,11.10
2022-11-16T20:33:09.926Z,11.00
2022-11-16T20:35:40.243Z,11.10
2022-11-16T20:38:09.053Z,11.10
2022-11-16T20:40:37.595Z,11.10
2022-11-16T20:43:05.794Z,11.10
2022-11-16T20:45:34.846Z,11.10
2022-11-16T20:48:06.421Z,11.10
2022-11-16T20:50:40.744Z,11.10
2022-11-16T20:53:10.773Z,11.10
2022-11-16T20:55:39.445Z,11.10
2022-11-16T20:58:08.188Z,11.10
2022-11-16T21:00:36.527Z,11.10
2022-11-16T21:03:04.950Z,11.10
2022-11-16T21:05:33.297Z,11.10
2022-11-16T21:08:01.969Z,11.00
2022-11-16T21:10:35.786Z,11.00
2022-11-16T21:13:21.689Z,11.00
2022-11-16T21:15:56.580Z,11.00
2022-11-16T21:18:30.353Z,11.00
2022-11-16T21:21:00.348Z,11.00
2022-11-16T21:23:29.738Z,10.90
2022-11-16T21:26:04.253Z,10.90
2022-11-16T21:28:32.640Z,10.90
2022-11-16T21:31:05.178Z,10.80
2022-11-16T21:33:57.962Z,10.80
2022-11-16T21:36:28.503Z,10.80
2022-11-16T21:38:58.087Z,10.80
2022-11-16T21:41:33.965Z,10.80
2022-11-16T21:44:04.013Z,10.70
2022-11-16T21:46:33.777Z,10.70
2022-11-16T21:49:05.375Z,10.70
2022-11-16T21:51:33.717Z,10.70
2022-11-16T21:54:05.056Z,10.70
2022-11-16T21:56:34.870Z,10.70
2022-11-16T21:59:03.157Z,10.70
2022-11-16T22:01:51.688Z,10.70
2022-11-16T22:04:37.119Z,10.70
2022-11-16T22:07:22.924Z,10.70
2022-11-16T22:09:52.066Z,10.70
2022-11-16T22:12:22.542Z,10.70
2022-11-16T22:14:50.995Z,10.60
2022-11-16T22:17:20.158Z,10.70
2022-11-16T22:19:48.459Z,10.70
2022-11-16T22:22:17.114Z,10.70
2022-11-16T22:24:45.424Z,10.80
2022-11-16T22:27:14.049Z,10.80
2022-11-16T22:29:46.738Z,10.80
2022-11-16T22:32:18.911Z,10.80
2022-11-16T22:34:48.049Z,10.80
2022-11-16T22:37:16.789Z,10.80
2022-11-16T22:39:45.335Z,10.80
2022-11-16T22:42:13.809Z,10.80
2022-11-16T22:44:43.541Z,10.80
2022-11-16T22:47:11.834Z,10.80
2022-11-16T22:49:40.364Z,10.80
2022-11-16T22:52:08.840Z,10.80
2022-11-16T22:54:38.890Z,10.80
2022-11-16T22:57:07.276Z,10.90
2022-11-16T22:59:35.866Z,10.90
2022-11-16T23:02:06.233Z,10.90
2022-11-16T23:04:34.566Z,10.90
2022-11-16T23:07:03.753Z,10.90
2022-11-16T23:09:32.872Z,10.90
2022-11-16T23:12:18.240Z,10.90
2022-11-16T23:15:04.298Z,10.90
2022-11-16T23:17:34.161Z,10.90
2022-11-16T23:20:19.858Z,10.90
2022-11-16T23:23:05.617Z,10.80
2022-11-16T23:25:52.331Z,10.80
2022-11-16T23:28:20.994Z,10.80
2022-11-16T23:30:49.379Z,10.80
2022-11-16T23:33:39.222Z,10.70
2022-11-16T23:36:08.256Z,10.70
2022-11-16T23:38:36.455Z,10.70
2022-11-16T23:41:25.263Z,10.70
2022-11-16T23:43:58.362Z,10.70
2022-11-16T23:46:27.653Z,10.70
2022-11-16T23:48:57.687Z,10.70
2022-11-16T23:51:26.269Z,10.60
2022-11-16T23:53:56.073Z,10.70
2022-11-16T23:56:29.843Z,10.60
2022-11-16T23:58:58.558Z,10.60
